createdAt,value
2022-09-23T00:00:17.030Z,23
2022-09-23T00:01:18.633Z,23
2022-09-23T00:02:20.852Z,23
2022-09-23T00:03:22.872Z,23
2022-09-23T00:04:24.532Z,23
2022-09-23T00:05:26.647Z,23
2022-09-23T00:06:28.291Z,23
2022-09-23T00:07:29.928Z,23
2022-09-23T00:08:31.689Z,23
2022-09-23T00:09:33.325Z,22.9
2022-09-23T00:10:34.967Z,23
2022-09-23T00:11:36.664Z,23
2022-09-23T00:12:38.263Z,23
2022-09-23T00:13:39.858Z,23
2022-09-23T00:14:41.568Z,22.9
2022-09-23T00:15:43.242Z,22.9
2022-09-23T00:16:44.994Z,22.9
2022-09-23T00:17:47.180Z,22.9
2022-09-23T00:18:48.812Z,22.9
2022-09-23T00:19:50.370Z,22.9
2022-09-23T00:20:52.248Z,22.9
2022-09-23T00:21:53.788Z,22.9
2022-09-23T00:22:55.361Z,22.9
2022-09-23T00:23:57.061Z,22.9
2022-09-23T00:24:58.770Z,22.9
2022-09-23T00:26:00.386Z,22.9
2022-09-23T00:27:01.999Z,22.9
2022-09-23T00:28:03.504Z,22.9
2022-09-23T00:29:05.105Z,22.9
2022-09-23T00:30:06.660Z,22.9
2022-09-23T00:31:08.349Z,22.9
2022-09-23T00:32:10.416Z,22.9
2022-09-23T00:33:11.956Z,22.9
2022-09-23T00:34:13.535Z,22.9
2022-09-23T00:35:15.236Z,22.9
2022-09-23T00:36:17.023Z,22.9
2022-09-23T00:37:18.689Z,22.8
2022-09-23T00:38:20.239Z,22.8
2022-09-23T00:39:21.978Z,22.8
2022-09-23T00:40:23.583Z,22.8
2022-09-23T00:41:25.672Z,22.8
2022-09-23T00:42:27.377Z,22.8
2022-09-23T00:43:29.089Z,22.8
2022-09-23T00:44:30.759Z,22.8
2022-09-23T00:45:32.330Z,22.7
2022-09-23T00:46:34.044Z,22.7
2022-09-23T00:47:36.146Z,22.6
2022-09-23T00:48:37.626Z,22.6
2022-09-23T00:49:39.210Z,22.6
2022-09-23T00:50:40.890Z,22.7
2022-09-23T00:51:42.725Z,22.6
2022-09-23T00:52:44.475Z,22.6
2022-09-23T00:53:46.082Z,22.6
2022-09-23T00:54:47.684Z,22.6
2022-09-23T00:55:49.306Z,22.6
2022-09-23T00:56:50.975Z,22.6
2022-09-23T00:57:52.512Z,22.6
2022-09-23T00:58:54.026Z,22.6
2022-09-23T00:59:55.762Z,22.6
2022-09-23T01:00:57.398Z,22.6
2022-09-23T01:01:59.512Z,22.6
2022-09-23T01:03:01.591Z,22.6
2022-09-23T01:04:03.422Z,22.6
2022-09-23T01:05:05.113Z,22.6
2022-09-23T01:06:06.789Z,22.6
2022-09-23T01:07:08.633Z,22.6
2022-09-23T01:08:10.211Z,22.6
2022-09-23T01:09:11.914Z,22.7
2022-09-23T01:10:13.523Z,22.7
2022-09-23T01:11:15.163Z,22.7
2022-09-23T01:12:16.800Z,22.7
2022-09-23T01:13:18.334Z,22.7
2022-09-23T01:14:20.105Z,22.7
2022-09-23T01:15:21.667Z,22.7
2022-09-23T01:16:23.371Z,22.7
2022-09-23T01:17:25.394Z,22.7
2022-09-23T01:18:26.902Z,22.6
2022-09-23T01:19:28.595Z,22.6
2022-09-23T01:20:30.218Z,22.6
2022-09-23T01:21:31.945Z,22.6
2022-09-23T01:22:33.824Z,22.7
2022-09-23T01:23:35.412Z,22.7
2022-09-23T01:24:36.997Z,22.6
2022-09-23T01:25:38.649Z,22.6
2022-09-23T01:26:40.203Z,22.6
2022-09-23T01:27:41.811Z,22.6
2022-09-23T01:28:43.436Z,22.6
2022-09-23T01:29:47.908Z,22.6
2022-09-23T01:30:49.640Z,22.6
2022-09-23T01:31:51.701Z,22.6
2022-09-23T01:32:53.287Z,22.6
2022-09-23T01:33:55.026Z,22.6
2022-09-23T01:34:56.638Z,22.6
2022-09-23T01:35:58.375Z,22.6
2022-09-23T01:37:00.009Z,22.6
2022-09-23T01:38:01.882Z,22.6
2022-09-23T01:39:03.580Z,22.6
2022-09-23T01:40:05.268Z,22.6
2022-09-23T01:41:07.562Z,22.6
2022-09-23T01:42:09.281Z,22.6
2022-09-23T01:43:10.811Z,22.6
2022-09-23T01:44:12.344Z,22.6
2022-09-23T01:45:13.882Z,22.6
2022-09-23T01:46:15.631Z,22.6
2022-09-23T01:47:17.395Z,22.6
2022-09-23T01:48:19.091Z,22.6
2022-09-23T01:49:21.208Z,22.6
2022-09-23T01:50:22.799Z,22.6
2022-09-23T01:51:24.372Z,22.5
2022-09-23T01:52:26.102Z,22.5
2022-09-23T01:53:27.996Z,22.5
2022-09-23T01:54:29.586Z,22.5
2022-09-23T01:55:31.172Z,22.6
2022-09-23T01:56:32.727Z,22.6
2022-09-23T01:57:34.333Z,22.6
2022-09-23T01:58:35.970Z,22.6
2022-09-23T01:59:37.474Z,22.6
2022-09-23T02:00:39.072Z,22.5
2022-09-23T02:01:40.684Z,22.5
2022-09-23T02:02:42.877Z,22.5
2022-09-23T02:03:45.102Z,22.5
2022-09-23T02:04:46.767Z,22.5
2022-09-23T02:05:48.409Z,22.5
2022-09-23T02:06:50.077Z,22.5
2022-09-23T02:07:51.773Z,22.5
2022-09-23T02:08:53.591Z,22.5
2022-09-23T02:09:55.164Z,22.5
2022-09-23T02:10:56.730Z,22.5
2022-09-23T02:11:58.922Z,22.5
2022-09-23T02:13:00.580Z,22.5
2022-09-23T02:14:02.217Z,22.5
2022-09-23T02:15:04.077Z,22.4
2022-09-23T02:16:05.779Z,22.4
2022-09-23T02:17:07.334Z,22.5
2022-09-23T02:18:08.866Z,22.5
2022-09-23T02:19:10.536Z,22.5
2022-09-23T02:20:12.207Z,22.5
2022-09-23T02:21:13.832Z,22.5
2022-09-23T02:22:15.446Z,22.4
2022-09-23T02:23:17.207Z,22.5
2022-09-23T02:24:19.086Z,22.5
2022-09-23T02:25:20.731Z,22.5
2022-09-23T02:26:22.357Z,22.5
2022-09-23T02:27:23.993Z,22.5
2022-09-23T02:28:25.626Z,22.5
2022-09-23T02:29:27.157Z,22.4
2022-09-23T02:30:28.959Z,22.4
2022-09-23T02:31:30.592Z,22.4
2022-09-23T02:32:32.566Z,22.4
2022-09-23T02:33:34.226Z,22.4
2022-09-23T02:34:35.868Z,22.4
2022-09-23T02:35:37.631Z,22.4
2022-09-23T02:36:39.321Z,22.4
2022-09-23T02:37:40.945Z,22.4
2022-09-23T02:38:42.580Z,22.4
2022-09-23T02:39:44.478Z,22.4
2022-09-23T02:40:46.135Z,22.4
2022-09-23T02:41:48.327Z,22.4
2022-09-23T02:42:49.936Z,22.4
2022-09-23T02:43:51.884Z,22.4
2022-09-23T02:44:53.434Z,22.4
2022-09-23T02:45:55.086Z,22.4
2022-09-23T02:46:57.171Z,22.4
2022-09-23T02:47:58.762Z,22.4
2022-09-23T02:49:00.388Z,22.3
2022-09-23T02:50:02.061Z,22.4
2022-09-23T02:51:03.997Z,22.4
2022-09-23T02:52:05.600Z,22.4
2022-09-23T02:53:07.209Z,22.4
2022-09-23T02:54:11.840Z,22.4
2022-09-23T02:55:13.666Z,22.4
2022-09-23T02:56:15.361Z,22.4
2022-09-23T02:57:17.052Z,22.4
2022-09-23T02:58:18.651Z,22.4
2022-09-23T02:59:20.385Z,22.4
2022-09-23T03:00:22.037Z,22.4
2022-09-23T03:01:23.642Z,22.4
2022-09-23T03:02:25.834Z,22.4
2022-09-23T03:03:28.076Z,22.4
2022-09-23T03:04:29.748Z,22.4
2022-09-23T03:05:31.344Z,22.3
2022-09-23T03:06:33.108Z,22.3
2022-09-23T03:07:34.869Z,22.4
2022-09-23T03:08:36.445Z,22.4
2022-09-23T03:09:38.273Z,22.3
2022-09-23T03:10:40.095Z,22.3
2022-09-23T03:11:41.698Z,22.3
2022-09-23T03:12:43.657Z,22.3
2022-09-23T03:13:45.276Z,22.3
2022-09-23T03:14:46.976Z,22.3
2022-09-23T03:15:48.537Z,22.3
2022-09-23T03:16:50.100Z,22.3
2022-09-23T03:17:52.283Z,22.3
2022-09-23T03:18:53.924Z,22.3
2022-09-23T03:19:55.471Z,22.3
2022-09-23T03:20:57.104Z,22.3
2022-09-23T03:21:58.773Z,22.3
2022-09-23T03:23:00.380Z,22.3
2022-09-23T03:24:02.147Z,22.3
2022-09-23T03:25:04.189Z,22.3
2022-09-23T03:26:05.993Z,22.3
2022-09-23T03:27:07.534Z,22.3
2022-09-23T03:28:09.249Z,22.3
2022-09-23T03:29:10.910Z,22.3
2022-09-23T03:30:12.413Z,22.3
2022-09-23T03:31:14.321Z,22.3
2022-09-23T03:32:16.490Z,22.3
2022-09-23T03:33:18.367Z,22.3
2022-09-23T03:34:19.926Z,22.3
2022-09-23T03:35:21.588Z,22.3
2022-09-23T03:36:23.211Z,22.3
2022-09-23T03:37:24.851Z,22.3
2022-09-23T03:38:26.502Z,22.3
2022-09-23T03:39:28.031Z,22.3
2022-09-23T03:40:29.761Z,22.3
2022-09-23T03:41:32.109Z,22.3
2022-09-23T03:42:33.642Z,22.3
2022-09-23T03:43:38.794Z,22.3
2022-09-23T03:44:40.696Z,22.3
2022-09-23T03:45:42.349Z,22.3
2022-09-23T03:46:44.426Z,22.3
2022-09-23T03:47:46.011Z,22.3
2022-09-23T03:48:50.353Z,22.3
2022-09-23T03:49:51.979Z,22.3
2022-09-23T03:50:53.549Z,22.3
2022-09-23T03:51:55.161Z,22.3
2022-09-23T03:52:56.815Z,22.3
2022-09-23T03:53:58.460Z,22.3
2022-09-23T03:55:00.471Z,22.3
2022-09-23T03:56:02.202Z,22.2
2022-09-23T03:57:04.051Z,22.2
2022-09-23T03:58:05.633Z,22.2
2022-09-23T03:59:07.232Z,22.2
2022-09-23T04:00:08.851Z,22.3
2022-09-23T04:01:10.457Z,22.3
2022-09-23T04:02:12.660Z,22.2
2022-09-23T04:03:14.782Z,22.2
2022-09-23T04:04:16.354Z,22.2
2022-09-23T04:05:17.890Z,22.2
2022-09-23T04:06:19.555Z,22.2
2022-09-23T04:07:21.094Z,22.2
2022-09-23T04:08:22.943Z,22.2
2022-09-23T04:09:24.563Z,22.2
2022-09-23T04:10:26.104Z,22.2
2022-09-23T04:11:27.862Z,22.2
2022-09-23T04:12:29.756Z,22.2
2022-09-23T04:13:31.302Z,22.2
2022-09-23T04:14:33.083Z,22.2
2022-09-23T04:15:34.630Z,22.2
2022-09-23T04:16:36.359Z,22.2
2022-09-23T04:17:38.604Z,22.2
2022-09-23T04:18:40.255Z,22.1
2022-09-23T04:19:41.896Z,22.1
2022-09-23T04:20:43.607Z,22.1
2022-09-23T04:21:45.227Z,22.1
2022-09-23T04:22:46.880Z,22.1
2022-09-23T04:23:48.483Z,22.1
2022-09-23T04:24:50.020Z,22.1
2022-09-23T04:25:51.663Z,22.1
2022-09-23T04:26:53.380Z,22
2022-09-23T04:27:55.251Z,22
2022-09-23T04:28:56.810Z,22
2022-09-23T04:29:58.354Z,22.1
2022-09-23T04:30:59.959Z,22.1
2022-09-23T04:32:01.573Z,22.1
2022-09-23T04:33:03.186Z,22.1
2022-09-23T04:34:04.838Z,22.1
2022-09-23T04:35:06.506Z,22.1
2022-09-23T04:36:08.175Z,22.1
2022-09-23T04:37:09.818Z,22.1
2022-09-23T04:38:11.377Z,22.1
2022-09-23T04:39:13.015Z,22.1
2022-09-23T04:40:14.684Z,22.1
2022-09-23T04:41:16.474Z,22.1
2022-09-23T04:42:18.123Z,22.1
2022-09-23T04:43:19.995Z,22.1
2022-09-23T04:44:21.636Z,22.1
2022-09-23T04:45:23.216Z,22.1
2022-09-23T04:46:24.835Z,22.1
2022-09-23T04:47:26.923Z,22.1
2022-09-23T04:48:28.555Z,22.1
2022-09-23T04:49:30.215Z,22.1
2022-09-23T04:50:31.829Z,22.1
2022-09-23T04:51:33.507Z,22.1
2022-09-23T04:52:35.058Z,22.1
2022-09-23T04:53:36.750Z,22.1
2022-09-23T04:54:38.535Z,22.1
2022-09-23T04:55:40.106Z,22.1
2022-09-23T04:56:41.735Z,22.1
2022-09-23T04:57:43.368Z,22.1
2022-09-23T04:58:45.220Z,22.1
2022-09-23T04:59:46.884Z,22.1
2022-09-23T05:00:48.498Z,22.1
2022-09-23T05:01:50.637Z,22.1
2022-09-23T05:02:52.621Z,22.1
2022-09-23T05:03:54.206Z,22.1
2022-09-23T05:04:55.769Z,22.1
2022-09-23T05:05:57.408Z,22.1
2022-09-23T05:07:02.274Z,22.1
2022-09-23T05:08:05.194Z,22
2022-09-23T05:09:06.978Z,22.1
2022-09-23T05:10:09.461Z,22
2022-09-23T05:11:11.107Z,22.1
2022-09-23T05:12:12.706Z,22.1
2022-09-23T05:13:14.339Z,22.1
2022-09-23T05:14:16.189Z,22.1
2022-09-23T05:15:17.751Z,22.1
2022-09-23T05:16:19.401Z,22
2022-09-23T05:17:21.536Z,22
2022-09-23T05:18:23.111Z,22
2022-09-23T05:19:24.804Z,22.1
2022-09-23T05:20:29.293Z,22
2022-09-23T05:21:30.846Z,22
2022-09-23T05:22:32.492Z,22
2022-09-23T05:23:34.064Z,22
2022-09-23T05:24:35.656Z,22
2022-09-23T05:25:38.400Z,22
2022-09-23T05:26:40.171Z,22.1
2022-09-23T05:27:42.087Z,22.1
2022-09-23T05:28:43.647Z,22.1
2022-09-23T05:29:45.515Z,22.1
2022-09-23T05:30:47.343Z,22.1
2022-09-23T05:31:49.089Z,22.1
2022-09-23T05:32:51.546Z,22.2
2022-09-23T05:33:53.155Z,22.2
2022-09-23T05:34:54.826Z,22.2
2022-09-23T05:35:56.342Z,22.2
2022-09-23T05:37:00.618Z,22.2
2022-09-23T05:38:02.180Z,22.2
2022-09-23T05:39:03.792Z,22.2
2022-09-23T05:40:05.503Z,22.3
2022-09-23T05:41:07.457Z,22.3
2022-09-23T05:42:09.019Z,22.3
2022-09-23T05:43:10.560Z,22.3
2022-09-23T05:44:12.256Z,22.3
2022-09-23T05:45:14.121Z,22.3
2022-09-23T05:46:15.797Z,22.4
2022-09-23T05:47:17.916Z,22.4
2022-09-23T05:48:19.694Z,22.4
2022-09-23T05:49:29.632Z,22.4
2022-09-23T05:51:02.164Z,22.4
2022-09-23T05:52:03.724Z,22.5
2022-09-23T05:53:05.261Z,22.5
2022-09-23T05:54:06.948Z,22.5
2022-09-23T05:55:09.359Z,22.5
2022-09-23T05:56:10.924Z,22.5
2022-09-23T05:57:12.589Z,22.5
2022-09-23T05:58:14.237Z,22.5
2022-09-23T05:59:15.867Z,22.6
2022-09-23T06:00:17.733Z,22.6
2022-09-23T06:01:19.288Z,22.6
2022-09-23T06:02:21.222Z,22.7
2022-09-23T06:03:23.221Z,22.7
2022-09-23T06:04:25.322Z,22.7
2022-09-23T06:05:26.886Z,22.7
2022-09-23T06:06:28.498Z,22.7
2022-09-23T06:07:30.126Z,22.8
2022-09-23T06:08:31.681Z,22.8
2022-09-23T06:09:36.467Z,22.8
2022-09-23T06:10:41.081Z,22.8
2022-09-23T06:11:42.641Z,22.9
2022-09-23T06:12:44.311Z,22.9
2022-09-23T06:13:46.161Z,22.9
2022-09-23T06:14:47.781Z,22.9
2022-09-23T06:15:49.800Z,22.9
2022-09-23T06:16:51.793Z,23
2022-09-23T06:17:53.350Z,23
2022-09-23T06:18:54.927Z,23
2022-09-23T06:19:56.549Z,23
2022-09-23T06:21:00.805Z,23.1
2022-09-23T06:22:02.452Z,23.1
2022-09-23T06:23:06.965Z,23.1
2022-09-23T06:24:16.864Z,23.1
2022-09-23T06:25:32.813Z,23.2
2022-09-23T06:26:34.387Z,23.2
2022-09-23T06:27:36.071Z,23.2
2022-09-23T06:28:37.605Z,23.2
2022-09-23T06:29:39.448Z,23.3
2022-09-23T06:30:41.134Z,23.3
2022-09-23T06:31:43.040Z,23.3
2022-09-23T06:32:45.452Z,23.3
2022-09-23T06:33:46.989Z,23.4
2022-09-23T06:34:51.802Z,23.4
2022-09-23T06:35:59.175Z,23.4
2022-09-23T06:37:12.102Z,23.4
2022-09-23T06:38:23.223Z,23.5
2022-09-23T06:39:24.942Z,23.5
2022-09-23T06:40:26.578Z,23.5
2022-09-23T06:41:28.821Z,23.6
2022-09-23T06:42:30.423Z,23.6
2022-09-23T06:43:32.066Z,23.6
2022-09-23T06:44:33.866Z,23.6
2022-09-23T06:45:35.522Z,23.6
2022-09-23T06:46:37.205Z,23.6
2022-09-23T06:47:39.616Z,23.7
2022-09-23T06:48:45.424Z,23.7
2022-09-23T06:49:48.071Z,23.7
2022-09-23T06:50:49.671Z,23.8
2022-09-23T06:51:51.255Z,23.8
2022-09-23T06:52:52.871Z,23.8
2022-09-23T06:53:54.406Z,23.8
2022-09-23T06:54:55.992Z,23.8
2022-09-23T06:55:57.682Z,23.8
2022-09-23T06:56:59.316Z,23.9
2022-09-23T06:58:00.954Z,23.9
2022-09-23T06:59:02.736Z,23.9
2022-09-23T07:00:04.399Z,23.9
2022-09-23T07:01:05.980Z,23.9
2022-09-23T07:02:08.009Z,23.9
2022-09-23T07:03:10.444Z,23.9
2022-09-23T07:04:11.990Z,23.9
2022-09-23T07:05:13.501Z,23.9
2022-09-23T07:06:15.378Z,24
2022-09-23T07:07:17.111Z,24
2022-09-23T07:08:18.715Z,24
2022-09-23T07:09:20.333Z,24
2022-09-23T07:10:21.876Z,24
2022-09-23T07:11:23.458Z,24.1
2022-09-23T07:12:25.163Z,24.1
2022-09-23T07:13:26.744Z,24.1
2022-09-23T07:14:28.337Z,24.1
2022-09-23T07:15:29.941Z,24.1
2022-09-23T07:16:31.483Z,24.1
2022-09-23T07:17:33.452Z,24.1
2022-09-23T07:18:36.855Z,24.1
2022-09-23T07:19:39.229Z,24.1
2022-09-23T07:20:40.842Z,24.2
2022-09-23T07:21:42.503Z,24.2
2022-09-23T07:22:44.109Z,24.2
2022-09-23T07:23:45.697Z,24.2
2022-09-23T07:24:47.444Z,24.2
2022-09-23T07:25:49.002Z,24.2
2022-09-23T07:26:50.615Z,24.3
2022-09-23T07:27:52.230Z,24.3
2022-09-23T07:28:53.903Z,24.3
2022-09-23T07:29:55.597Z,24.3
2022-09-23T07:31:00.509Z,24.3
2022-09-23T07:32:11.205Z,24.3
2022-09-23T07:33:27.845Z,24.4
2022-09-23T07:34:35.289Z,24.4
2022-09-23T07:35:37.009Z,24.4
2022-09-23T07:36:38.524Z,24.4
2022-09-23T07:37:40.079Z,24.4
2022-09-23T07:38:45.373Z,24.4
2022-09-23T07:39:47.538Z,24.4
2022-09-23T07:40:49.245Z,24.4
2022-09-23T07:41:51.244Z,24.4
2022-09-23T07:42:52.789Z,24.4
2022-09-23T07:43:54.383Z,24.4
2022-09-23T07:44:55.965Z,24.4
2022-09-23T07:45:57.684Z,24.4
2022-09-23T07:46:59.572Z,24.4
2022-09-23T07:48:01.115Z,24.4
2022-09-23T07:49:02.721Z,24.4
2022-09-23T07:50:04.587Z,24.4
2022-09-23T07:51:06.376Z,24.4
2022-09-23T07:52:08.041Z,24.4
2022-09-23T07:53:09.709Z,24.4
2022-09-23T07:54:11.428Z,24.4
2022-09-23T07:55:14.785Z,24.5
2022-09-23T07:56:22.686Z,24.5
2022-09-23T07:57:24.330Z,24.5
2022-09-23T07:58:25.917Z,24.5
2022-09-23T07:59:27.647Z,24.5
2022-09-23T08:00:29.256Z,24.5
2022-09-23T08:01:30.927Z,24.5
2022-09-23T08:02:33.143Z,24.5
2022-09-23T08:03:35.317Z,24.5
2022-09-23T08:04:37.065Z,24.5
2022-09-23T08:05:38.924Z,24.5
2022-09-23T08:06:40.606Z,24.6
2022-09-23T08:07:42.306Z,24.6
2022-09-23T08:08:43.977Z,24.6
2022-09-23T08:09:45.614Z,24.6
2022-09-23T08:10:47.264Z,24.6
2022-09-23T08:11:48.873Z,24.6
2022-09-23T08:12:50.536Z,24.6
2022-09-23T08:13:52.013Z,24.6
2022-09-23T08:14:53.611Z,24.6
2022-09-23T08:15:55.709Z,24.6
2022-09-23T08:16:57.675Z,24.6
2022-09-23T08:17:59.329Z,24.6
2022-09-23T08:19:01.216Z,24.6
2022-09-23T08:20:03.701Z,24.6
2022-09-23T08:21:05.681Z,24.6
2022-09-23T08:22:07.438Z,24.6
2022-09-23T08:23:08.985Z,24.6
2022-09-23T08:24:10.591Z,24.6
2022-09-23T08:25:12.177Z,24.6
2022-09-23T08:26:20.577Z,24.6
2022-09-23T08:27:21.574Z,24.7
2022-09-23T08:28:23.196Z,24.7
2022-09-23T08:29:24.741Z,24.7
2022-09-23T08:30:26.310Z,24.7
2022-09-23T08:31:28.019Z,24.7
2022-09-23T08:32:29.929Z,24.7
2022-09-23T08:33:31.528Z,24.7
2022-09-23T08:34:33.322Z,24.7
2022-09-23T08:35:34.908Z,24.7
2022-09-23T08:36:36.666Z,24.7
2022-09-23T08:37:38.421Z,24.7
2022-09-23T08:38:40.058Z,24.7
2022-09-23T08:39:41.714Z,24.6
2022-09-23T08:40:43.326Z,24.5
2022-09-23T08:41:45.252Z,24.5
2022-09-23T08:42:46.783Z,24.6
2022-09-23T08:43:48.419Z,24.5
2022-09-23T08:44:50.034Z,24.5
2022-09-23T08:45:51.722Z,24.4
2022-09-23T08:46:53.457Z,24.4
2022-09-23T08:47:55.064Z,24.3
2022-09-23T08:48:56.676Z,24.3
2022-09-23T08:49:58.225Z,24.3
2022-09-23T08:50:59.919Z,24.4
2022-09-23T08:52:01.803Z,24.4
2022-09-23T08:53:03.375Z,24.4
2022-09-23T08:54:04.906Z,24.4
2022-09-23T08:55:07.215Z,24.4
2022-09-23T08:56:08.766Z,24.4
2022-09-23T08:57:10.313Z,24.4
2022-09-23T08:58:24.790Z,24.4
2022-09-23T08:59:28.653Z,24.5
2022-09-23T09:00:30.241Z,24.5
2022-09-23T09:01:31.931Z,24.5
2022-09-23T09:02:33.968Z,24.5
2022-09-23T09:03:35.919Z,24.5
2022-09-23T09:04:37.460Z,24.5
2022-09-23T09:05:39.012Z,24.5
2022-09-23T09:06:52.162Z,24.5
2022-09-23T09:08:33.143Z,24.6
2022-09-23T09:09:34.879Z,24.6
2022-09-23T09:10:36.438Z,24.6
2022-09-23T09:11:37.981Z,24.7
2022-09-23T09:12:39.523Z,24.7
2022-09-23T09:13:41.061Z,24.7
2022-09-23T09:14:42.637Z,24.7
2022-09-23T09:15:44.251Z,24.7
2022-09-23T09:16:59.323Z,24.7
2022-09-23T09:18:03.320Z,24.7
2022-09-23T09:19:05.051Z,24.7
2022-09-23T09:20:06.801Z,24.7
2022-09-23T09:21:08.466Z,24.7
2022-09-23T09:22:10.075Z,24.7
2022-09-23T09:23:11.854Z,24.7
2022-09-23T09:24:13.442Z,24.7
2022-09-23T09:25:15.155Z,24.7
2022-09-23T09:26:16.870Z,24.7
2022-09-23T09:27:18.517Z,24.7
2022-09-23T09:28:20.080Z,24.7
2022-09-23T09:29:34.682Z,24.7
2022-09-23T09:30:38.840Z,24.8
2022-09-23T09:31:40.862Z,24.7
2022-09-23T09:32:42.428Z,24.7
2022-09-23T09:33:43.979Z,24.8
2022-09-23T09:34:48.349Z,24.7
2022-09-23T09:35:49.894Z,24.7
2022-09-23T09:36:51.596Z,24.7
2022-09-23T09:37:53.694Z,24.7
2022-09-23T09:38:55.686Z,24.7
2022-09-23T09:39:57.254Z,24.7
2022-09-23T09:40:58.818Z,24.7
2022-09-23T09:42:00.437Z,24.7
2022-09-23T09:43:02.025Z,24.7
2022-09-23T09:44:03.690Z,24.7
2022-09-23T09:45:05.335Z,24.7
2022-09-23T09:46:06.969Z,24.8
2022-09-23T09:47:08.503Z,24.8
2022-09-23T09:48:10.043Z,24.8
2022-09-23T09:49:11.609Z,24.8
2022-09-23T09:50:13.173Z,24.8
2022-09-23T09:51:14.790Z,24.8
2022-09-23T09:52:16.443Z,24.8
2022-09-23T09:53:18.028Z,24.8
2022-09-23T09:54:19.739Z,24.8
2022-09-23T09:55:21.306Z,24.8
2022-09-23T09:56:22.844Z,24.8
2022-09-23T09:57:24.498Z,24.8
2022-09-23T09:58:26.037Z,24.8
2022-09-23T09:59:27.675Z,24.8
2022-09-23T10:00:29.220Z,24.8
2022-09-23T10:01:30.787Z,24.8
2022-09-23T10:02:32.785Z,24.8
2022-09-23T10:03:34.506Z,24.8
2022-09-23T10:04:36.122Z,24.8
2022-09-23T10:05:38.076Z,24.8
2022-09-23T10:06:39.634Z,24.9
2022-09-23T10:07:41.285Z,24.9
2022-09-23T10:08:43.085Z,24.9
2022-09-23T10:09:44.914Z,24.9
2022-09-23T10:10:46.479Z,24.9
2022-09-23T10:11:48.025Z,24.9
2022-09-23T10:12:49.568Z,25
2022-09-23T10:13:51.193Z,25
2022-09-23T10:14:52.774Z,25
2022-09-23T10:15:54.390Z,25
2022-09-23T10:16:56.320Z,24.9
2022-09-23T10:17:58.509Z,24.9
2022-09-23T10:19:00.237Z,24.9
2022-09-23T10:20:02.121Z,24.9
2022-09-23T10:21:03.768Z,24.9
2022-09-23T10:22:05.318Z,24.9
2022-09-23T10:23:06.922Z,24.9
2022-09-23T10:24:08.610Z,24.9
2022-09-23T10:25:10.244Z,24.9
2022-09-23T10:26:11.814Z,24.9
2022-09-23T10:27:13.417Z,24.9
2022-09-23T10:28:15.026Z,24.9
2022-09-23T10:29:16.566Z,25
2022-09-23T10:30:18.133Z,25
2022-09-23T10:31:19.669Z,25
2022-09-23T10:32:21.212Z,25
2022-09-23T10:33:22.874Z,25
2022-09-23T10:34:24.428Z,25
2022-09-23T10:35:26.044Z,25
2022-09-23T10:36:27.586Z,25
2022-09-23T10:37:29.346Z,25
2022-09-23T10:38:30.951Z,25
2022-09-23T10:39:32.530Z,25
2022-09-23T10:40:34.225Z,25
2022-09-23T10:41:36.162Z,25
2022-09-23T10:42:37.719Z,25
2022-09-23T10:43:39.344Z,25
2022-09-23T10:44:40.963Z,25
2022-09-23T10:45:43.199Z,25
2022-09-23T10:46:45.400Z,25
2022-09-23T10:47:47.042Z,25
2022-09-23T10:48:48.613Z,25.1
2022-09-23T10:49:50.156Z,25.1
2022-09-23T10:50:51.769Z,25.1
2022-09-23T10:51:53.323Z,25.1
2022-09-23T10:52:54.874Z,25.1
2022-09-23T10:53:56.483Z,25.2
2022-09-23T10:54:58.083Z,25.2
2022-09-23T10:55:59.927Z,25.2
2022-09-23T10:57:01.567Z,25.3
2022-09-23T10:58:03.531Z,25.3
2022-09-23T10:59:05.077Z,25.3
2022-09-23T11:00:06.705Z,25.3
2022-09-23T11:01:08.373Z,25.4
2022-09-23T11:02:10.302Z,25.4
2022-09-23T11:03:11.858Z,25.4
2022-09-23T11:04:13.896Z,25.3
2022-09-23T11:05:16.542Z,25.3
2022-09-23T11:06:18.262Z,25.3
2022-09-23T11:07:20.068Z,25.2
2022-09-23T11:08:21.722Z,25.2
2022-09-23T11:09:23.365Z,25.2
2022-09-23T11:10:44.769Z,25.1
2022-09-23T11:11:48.739Z,25.1
2022-09-23T11:12:50.350Z,25.1
2022-09-23T11:13:54.352Z,25.1
2022-09-23T11:14:56.673Z,25.1
2022-09-23T11:15:58.307Z,25.1
2022-09-23T11:16:59.876Z,25.1
2022-09-23T11:18:02.031Z,25.1
2022-09-23T11:19:03.589Z,25.1
2022-09-23T11:20:08.079Z,25.1
2022-09-23T11:21:09.794Z,25.1
2022-09-23T11:22:11.448Z,25.1
2022-09-23T11:23:13.153Z,25.1
2022-09-23T11:24:14.820Z,25.1
2022-09-23T11:25:16.628Z,25.1
2022-09-23T11:26:18.526Z,25.1
2022-09-23T11:27:20.286Z,25.1
2022-09-23T11:28:21.969Z,25.1
2022-09-23T11:29:23.517Z,25.1
2022-09-23T11:30:25.130Z,25.1
2022-09-23T11:31:27.004Z,25.1
2022-09-23T11:32:28.593Z,25.1
2022-09-23T11:33:30.217Z,25.1
2022-09-23T11:34:32.016Z,25.1
2022-09-23T11:35:33.554Z,25.1
2022-09-23T11:36:35.317Z,25.1
2022-09-23T11:37:36.954Z,25.1
2022-09-23T11:38:38.530Z,25.1
2022-09-23T11:39:40.079Z,25.1
2022-09-23T11:40:43.983Z,25.2
2022-09-23T11:41:48.622Z,25.2
2022-09-23T11:42:50.439Z,25.2
2022-09-23T11:43:52.600Z,25.2
2022-09-23T11:44:54.265Z,25.2
2022-09-23T11:45:55.901Z,25.2
2022-09-23T11:46:57.895Z,25.2
2022-09-23T11:47:59.462Z,25.2
2022-09-23T11:49:01.050Z,25.2
2022-09-23T11:50:02.777Z,25.2
2022-09-23T11:51:04.380Z,25.2
2022-09-23T11:52:06.025Z,25.2
2022-09-23T11:53:07.654Z,25.2
2022-09-23T11:54:09.311Z,25.2
2022-09-23T11:55:19.126Z,25.2
2022-09-23T11:56:33.244Z,25.2
2022-09-23T11:57:48.745Z,25.3
2022-09-23T11:58:53.536Z,25.3
2022-09-23T12:00:01.677Z,25.3
2022-09-23T12:01:03.316Z,25.3
2022-09-23T12:02:14.956Z,25.3
2022-09-23T12:03:41.093Z,25.3
2022-09-23T12:04:55.449Z,25.3
2022-09-23T12:06:00.812Z,25.3
2022-09-23T12:07:03.052Z,25.4
2022-09-23T12:08:04.777Z,25.3
2022-09-23T12:09:06.395Z,25.3
2022-09-23T12:10:07.952Z,25.3
2022-09-23T12:11:09.529Z,25.3
2022-09-23T12:12:11.118Z,25.3
2022-09-23T12:13:12.749Z,25.3
2022-09-23T12:14:14.682Z,25.3
2022-09-23T12:15:16.320Z,25.3
2022-09-23T12:16:17.950Z,25.3
2022-09-23T12:17:19.991Z,25.3
2022-09-23T12:18:23.215Z,25.3
2022-09-23T12:19:25.017Z,25.3
2022-09-23T12:20:26.577Z,25.3
2022-09-23T12:21:49.014Z,25.3
2022-09-23T12:22:53.119Z,25.3
2022-09-23T12:23:54.729Z,25.3
2022-09-23T12:24:56.296Z,25.4
2022-09-23T12:25:57.832Z,25.3
2022-09-23T12:26:59.458Z,25.4
2022-09-23T12:28:01.040Z,25.3
2022-09-23T12:29:02.641Z,25.3
2022-09-23T12:30:04.439Z,25.3
2022-09-23T12:31:06.237Z,25.3
2022-09-23T12:32:08.346Z,25.3
2022-09-23T12:33:09.888Z,25.4
2022-09-23T12:34:11.488Z,25.4
2022-09-23T12:35:13.385Z,25.4
2022-09-23T12:36:15.030Z,25.4
2022-09-23T12:37:16.574Z,25.4
2022-09-23T12:38:18.155Z,25.4
2022-09-23T12:39:19.787Z,25.4
2022-09-23T12:40:21.492Z,25.4
2022-09-23T12:41:23.562Z,25.4
2022-09-23T12:42:28.938Z,25.4
2022-09-23T12:43:33.207Z,25.4
2022-09-23T12:44:34.880Z,25.4
2022-09-23T12:45:36.813Z,25.4
2022-09-23T12:46:39.132Z,25.4
2022-09-23T12:47:40.729Z,25.4
2022-09-23T12:48:42.501Z,25.4
2022-09-23T12:49:44.043Z,25.4
2022-09-23T12:50:45.634Z,25.4
2022-09-23T12:51:47.280Z,25.4
2022-09-23T12:52:48.900Z,25.4
2022-09-23T12:53:50.544Z,25.4
2022-09-23T12:54:52.168Z,25.4
2022-09-23T12:55:54.279Z,25.4
2022-09-23T12:56:56.069Z,25.4
2022-09-23T12:57:57.721Z,25.4
2022-09-23T12:58:59.520Z,25.4
2022-09-23T13:00:01.151Z,25.4
2022-09-23T13:01:03.102Z,25.5
2022-09-23T13:02:05.343Z,25.5
2022-09-23T13:03:07.435Z,25.5
2022-09-23T13:04:08.982Z,25.5
2022-09-23T13:05:10.724Z,25.5
2022-09-23T13:06:12.450Z,25.5
2022-09-23T13:07:14.077Z,25.5
2022-09-23T13:08:15.766Z,25.5
2022-09-23T13:09:17.439Z,25.5
2022-09-23T13:10:19.105Z,25.5
2022-09-23T13:11:20.971Z,25.5
2022-09-23T13:12:22.857Z,25.5
2022-09-23T13:13:24.501Z,25.5
2022-09-23T13:14:27.630Z,25.5
2022-09-23T13:15:29.472Z,25.5
2022-09-23T13:16:34.290Z,25.5
2022-09-23T13:17:36.408Z,25.5
2022-09-23T13:18:37.969Z,25.5
2022-09-23T13:19:39.857Z,25.5
2022-09-23T13:20:41.587Z,25.5
2022-09-23T13:21:43.242Z,25.5
2022-09-23T13:22:45.047Z,25.5
2022-09-23T13:23:46.645Z,25.5
2022-09-23T13:24:48.338Z,25.5
2022-09-23T13:25:49.992Z,25.5
2022-09-23T13:26:51.745Z,25.5
2022-09-23T13:27:53.353Z,25.5
2022-09-23T13:28:54.988Z,25.5
2022-09-23T13:29:56.602Z,25.5
2022-09-23T13:30:58.170Z,25.5
2022-09-23T13:32:02.258Z,25.5
2022-09-23T13:33:04.511Z,25.4
2022-09-23T13:34:06.204Z,25.4
2022-09-23T13:35:08.477Z,25.5
2022-09-23T13:36:10.250Z,25.5
2022-09-23T13:37:11.957Z,25.5
2022-09-23T13:38:13.578Z,25.4
2022-09-23T13:39:15.281Z,25.4
2022-09-23T13:40:17.094Z,25.4
2022-09-23T13:41:19.165Z,25.4
2022-09-23T13:42:20.892Z,25.4
2022-09-23T13:43:22.514Z,25.4
2022-09-23T13:44:24.221Z,25.4
2022-09-23T13:45:25.925Z,25.4
2022-09-23T13:46:27.945Z,25.4
2022-09-23T13:47:29.823Z,25.4
2022-09-23T13:48:31.514Z,25.4
2022-09-23T13:49:33.096Z,25.4
2022-09-23T13:50:35.251Z,25.4
2022-09-23T13:51:36.963Z,25.4
2022-09-23T13:52:38.632Z,25.4